Time;durP1;ratioP1;P1;durP2;ratioP2;P2;SDS_P1;SDS_P2;PMS_P1;PMS_P2;Temp;Humidity;BMP_temperature;BMP_pressure;BME280_temperature;BME280_humidity;BME280_pressure;Samples;Min_cycle;Max_cycle;Signal;HPM_P1;HPM_P2
2022/03/05 00:00:06;;;;;;;;;;;;;;;;;;349859;28;1029;-84
2022/03/05 00:00:16;;;;;;;;;;;;;;;;;;350110;28;1149;-83
2022/03/05 00:00:26;;;;;;;;;;;;;;;;;;349917;28;972;-83
2022/03/05 00:00:36;;;;;;;;;;;;;;;;;;349983;28;850;-83
2022/03/05 00:00:48;;;;;;;;;;;;;;;;;;349913;28;881;-83
2022/03/05 00:00:58;;;;;;;;;;;;;;;;;;349886;28;1957;-83
2022/03/05 00:01:09;;;;;;;;;;;;;;;;;;349899;28;920;-83
2022/03/05 00:01:19;;;;;;;;;;;;;;;;;;349942;28;1008;-83
2022/03/05 00:01:30;;;;;;;;;;;;;;;;;;349921;28;909;-83
2022/03/05 00:01:40;;;;;;;;;;;;;;;;;;349953;28;924;-83
2022/03/05 00:01:50;;;;;;;;;;;;;;;;;;349332;28;1805;-83
2022/03/05 00:02:00;;;;;;;;;;;;;;;;;;349760;28;1746;-84
2022/03/05 00:02:11;;;;;;;;;;;;;;;;;;349898;28;988;-83
2022/03/05 00:02:21;;;;;;;;;;;;;;;;;;349964;28;925;-83
2022/03/05 00:02:31;;;;;;;;;;;;;;;;;;349945;28;863;-83
2022/03/05 00:02:41;;;;;;;;;;;;;;;;;;349961;28;925;-83
2022/03/05 00:02:52;;;;;;;;;;;;;;;;;;349885;28;872;-83
2022/03/05 00:03:02;;;;;;;;;;;;;;;;;;349941;28;936;-83
2022/03/05 00:03:12;;;;;;;;;;;;;;;;;;349993;28;1047;-83
2022/03/05 00:03:24;;;;;;;;;;;;;;;;;;349975;28;879;-83
2022/03/05 00:03:34;;;;;;;;;;;;;;;;;;350035;28;921;-83
2022/03/05 00:03:45;;;;;;;;;;;;;;;;;;349017;28;1629;-83
2022/03/05 00:03:55;;;;;;;;;;;;;;;;;;350037;28;870;-83
2022/03/05 00:04:05;;;;;;;;;;;;;;;;;;349926;28;925;-83
2022/03/05 00:04:16;;;;;;;;;;;;;;;;;;349952;28;917;-83
2022/03/05 00:04:27;;;;;;;;;;;;;;;;;;349962;28;921;-83
2022/03/05 00:04:37;;;;;;;;;;;;;;;;;;349927;28;891;-83
2022/03/05 00:04:47;;;;;;;;;;;;;;;;;;349659;28;1629;-83
2022/03/05 00:04:57;;;;;;;;;;;;;;;;;;349972;28;909;-83
2022/03/05 00:05:08;;;;;;;;;;;;;;;;;;349938;28;1046;-84
2022/03/05 00:05:18;;;;;;;;;;;;;;;;;;349972;28;904;-84
2022/03/05 00:05:29;;;;;;;;;;;;;;;;;;349953;28;969;-83
2022/03/05 00:05:39;;;;;;;;;;;;;;;;;;350031;28;944;-83
2022/03/05 00:05:49;;;;;;;;;;;;;;;;;;349902;28;949;-83
2022/03/05 00:06:00;;;;;;;;;;;;;;;;;;349961;28;829;-83
2022/03/05 00:06:10;;;;;;;;;;;;;;;;;;349915;28;917;-83
2022/03/05 00:06:20;;;;;;;;;;;;;;;;;;349628;28;1856;-83
2022/03/05 00:06:30;;;;;;;;;;;;;;;;;;348892;28;1733;-83
2022/03/05 00:06:41;;;;;;;;;;;;;;;;;;348532;28;981;-84
2022/03/05 00:06:51;;;;;;;;;;;;;;;;;;348698;28;858;-83
2022/03/05 00:07:01;;;;;;;;;;;;;;;;;;348585;28;917;-84
2022/03/05 00:07:11;;;;;;;;;;;;;;;;;;348534;28;846;-83
2022/03/05 00:07:21;;;;;;;;;;;;;;;;;;348748;28;1548;-83
2022/03/05 00:07:32;;;;;;;;;;;;;;;;;;349780;28;1494;-83
2022/03/05 00:07:43;;;;;;;;;;;;;;;;;;349961;28;913;-83
2022/03/05 00:07:53;;;;;;;;;;;;;;;;;;349846;28;1134;-83
2022/03/05 00:08:03;;;;;;;;;;;;;;;;;;349915;28;897;-83
2022/03/05 00:08:14;;;;;;;;;;;;;;;;;;352526;28;1296;-84
2022/03/05 00:08:24;;;;;;;;;;;;;;;;;;352703;28;853;-83
2022/03/05 00:08:34;;;;;;;;;;;;;;;;;;352610;28;900;-82
2022/03/05 00:08:45;;;;;;;;;;;;;;;;;;352604;28;810;-83
2022/03/05 00:08:55;;;;;;;;;;;;;;;;;;352644;28;921;-83
2022/03/05 00:09:05;;;;;;;;;;;;;;;;;;352607;28;865;-82
2022/03/05 00:09:17;;;;;;;;;;;;;;;;;;352619;28;917;-83
2022/03/05 00:09:27;;;;;;;;;;;;;;;;;;352626;28;928;-82
2022/03/05 00:09:37;;;;;;;;;;;;;;;;;;352634;28;952;-83
2022/03/05 00:09:48;;;;;;;;;;;;;;;;;;352652;28;944;-83
2022/03/05 00:09:58;;;;;;;;;;;;;;;;;;352561;28;965;-82
2022/03/05 00:10:09;;;;;;;;;;;;;;;;;;351742;28;889;-83
2022/03/05 00:10:19;;;;;;;;;;;;;;;;;;349921;28;949;-83
2022/03/05 00:10:30;;;;;;;;;;;;;;;;;;349879;28;913;-82
2022/03/05 00:10:40;;;;;;;;;;;;;;;;;;349974;28;917;-82
2022/03/05 00:10:51;;;;;;;;;;;;;;;;;;349967;28;917;-82
2022/03/05 00:11:02;;;;;;;;;;;;;;;;;;348931;28;1708;-82
2022/03/05 00:11:12;;;;;;;;;;;;;;;;;;348581;28;877;-83
2022/03/05 00:11:22;;;;;;;;;;;;;;;;;;348581;28;897;-83
2022/03/05 00:11:32;;;;;;;;;;;;;;;;;;348431;28;1169;-83
2022/03/05 00:11:43;;;;;;;;;;;;;;;;;;348524;28;977;-83
2022/03/05 00:11:53;;;;;;;;;;;;;;;;;;348531;28;921;-82
2022/03/05 00:12:03;;;;;;;;;;;;;;;;;;348486;28;775;-82
2022/03/05 00:12:13;;;;;;;;;;;;;;;;;;348488;28;1363;-84
2022/03/05 00:12:24;;;;;;;;;;;;;;;;;;348574;28;1028;-83
2022/03/05 00:12:34;;;;;;;;;;;;;;;;;;348531;28;929;-83
2022/03/05 00:12:53;;;;;;;;;;;;;;;;;;348609;28;850;-83
2022/03/05 00:13:03;;;;;;;;;;;;;;;;;;348529;28;850;-83
2022/03/05 00:13:13;;;;;;;;;;;;;;;;;;348487;28;809;-82
2022/03/05 00:13:24;;;;;;;;;;;;;;;;;;348558;28;981;-83
2022/03/05 00:13:36;;;;;;;;;;;;;;;;;;348571;28;913;-83
2022/03/05 00:13:46;;;;;;;;;;;;;;;;;;348526;28;1110;-83
2022/03/05 00:13:56;;;;;;;;;;;;;;;;;;348397;28;1712;-83
2022/03/05 00:14:06;;;;;;;;;;;;;;;;;;348482;28;933;-83
2022/03/05 00:14:16;;;;;;;;;;;;;;;;;;348603;28;941;-83
2022/03/05 00:14:27;;;;;;;;;;;;;;;;;;348502;28;949;-83
2022/03/05 00:14:37;;;;;;;;;;;;;;;;;;348548;28;933;-83
2022/03/05 00:14:48;;;;;;;;;;;;;;;;;;348521;28;1058;-84
2022/03/05 00:14:59;;;;;;;;;;;;;;;;;;348550;28;984;-83
2022/03/05 00:15:09;;;;;;;;;;;;;;;;;;348599;28;992;-83
2022/03/05 00:15:20;;;;;;;;;;;;;;;;;;348794;28;1798;-83
2022/03/05 00:15:30;;;;;;;;;;;;;;;;;;348520;28;937;-83
2022/03/05 00:15:43;;;;;;;;;;;;;;;;;;349837;28;1274;-84
2022/03/05 00:15:53;;;;;;;;;;;;;;;;;;349920;28;893;-83
2022/03/05 00:16:04;;;;;;;;;;;;;;;;;;349943;28;925;-83
2022/03/05 00:16:14;;;;;;;;;;;;;;;;;;349871;28;818;-83
2022/03/05 00:16:24;;;;;;;;;;;;;;;;;;349943;28;893;-83
2022/03/05 00:16:35;;;;;;;;;;;;;;;;;;349955;28;1048;-84
2022/03/05 00:16:45;;;;;;;;;;;;;;;;;;349833;28;1056;-83
2022/03/05 00:16:56;;;;;;;;;;;;;;;;;;349965;28;956;-84
2022/03/05 00:17:07;;;;;;;;;;;;;;;;;;349919;28;1043;-83
2022/03/05 00:17:17;;;;;;;;;;;;;;;;;;349902;28;975;-83
2022/03/05 00:17:27;;;;;;;;;;;;;;;;;;349933;28;1000;-83
2022/03/05 00:17:37;;;;;;;;;;;;;;;;;;349918;28;933;-83
2022/03/05 00:17:48;;;;;;;;;;;;;;;;;;349909;28;909;-84
2022/03/05 00:17:58;;;;;;;;;;;;;;;;;;349920;28;901;-84
2022/03/05 00:18:08;;;;;;;;;;;;;;;;;;349907;28;922;-84
2022/03/05 00:18:19;;;;;;;;;;;;;;;;;;349858;28;929;-84
2022/03/05 00:18:29;;;;;;;;;;;;;;;;;;349875;28;983;-83
2022/03/05 00:18:39;;;;;;;;;;;;;;;;;;349958;28;857;-83
2022/03/05 00:18:50;;;;;;;;;;;;;;;;;;349922;28;885;-83
2022/03/05 00:19:00;;;;;;;;;;;;;;;;;;350014;28;1015;-84
2022/03/05 00:19:10;;;;;;;;;;;;;;;;;;349916;28;988;-83
2022/03/05 00:19:21;;;;;;;;;;;;;;;;;;349909;28;909;-83
2022/03/05 00:19:31;;;;;;;;;;;;;;;;;;349882;28;1016;-83
2022/03/05 00:19:41;;;;;;;;;;;;;;;;;;349953;28;901;-83
2022/03/05 00:19:51;;;;;;;;;;;;;;;;;;349950;28;818;-83
2022/03/05 00:20:02;;;;;;;;;;;;;;;;;;349926;28;984;-84
2022/03/05 00:20:13;;;;;;;;;;;;;;;;;;349803;28;986;-83
2022/03/05 00:20:24;;;;;;;;;;;;;;;;;;349880;28;984;-83
2022/03/05 00:20:34;;;;;;;;;;;;;;;;;;349878;28;968;-83
2022/03/05 00:20:45;;;;;;;;;;;;;;;;;;349938;28;936;-83
2022/03/05 00:20:55;;;;;;;;;;;;;;;;;;349913;28;972;-83
2022/03/05 00:21:06;;;;;;;;;;;;;;;;;;349887;28;1910;-84
2022/03/05 00:21:16;;;;;;;;;;;;;;;;;;349929;28;895;-83
2022/03/05 00:21:26;;;;;;;;;;;;;;;;;;349894;28;1007;-83
2022/03/05 00:21:37;;;;;;;;;;;;;;;;;;349904;28;960;-84
2022/03/05 00:21:47;;;;;;;;;;;;;;;;;;349949;28;940;-83
2022/03/05 00:21:59;;;;;;;;;;;;;;;;;;349907;28;917;-83
2022/03/05 00:22:10;;;;;;;;;;;;;;;;;;349945;28;932;-84
2022/03/05 00:22:20;;;;;;;;;;;;;;;;;;349835;28;809;-83
2022/03/05 00:22:31;;;;;;;;;;;;;;;;;;349865;28;924;-84
2022/03/05 00:22:41;;;;;;;;;;;;;;;;;;349877;28;869;-83
2022/03/05 00:22:54;;;;;;;;;;;;;;;;;;349988;28;862;-83
2022/03/05 00:23:04;;;;;;;;;;;;;;;;;;349703;28;1516;-84
2022/03/05 00:23:15;;;;;;;;;;;;;;;;;;349789;28;1024;-83
2022/03/05 00:23:25;;;;;;;;;;;;;;;;;;349922;28;837;-83
2022/03/05 00:23:36;;;;;;;;;;;;;;;;;;349910;28;980;-83
2022/03/05 00:23:46;;;;;;;;;;;;;;;;;;349889;28;980;-83
2022/03/05 00:23:56;;;;;;;;;;;;;;;;;;349976;28;1047;-83
2022/03/05 00:24:06;;;;;;;;;;;;;;;;;;349965;28;921;-83
2022/03/05 00:24:17;;;;;;;;;;;;;;;;;;349874;28;949;-83
2022/03/05 00:24:27;;;;;;;;;;;;;;;;;;349877;28;968;-83
2022/03/05 00:24:37;;;;;;;;;;;;;;;;;;349116;28;1634;-83
2022/03/05 00:24:48;;;;;;;;;;;;;;;;;;348409;28;1770;-83
2022/03/05 00:24:58;;;;;;;;;;;;;;;;;;348364;28;1020;-84
2022/03/05 00:25:10;;;;;;;;;;;;;;;;;;348442;28;1658;-83
2022/03/05 00:25:21;;;;;;;;;;;;;;;;;;348408;28;984;-83
2022/03/05 00:25:31;;;;;;;;;;;;;;;;;;348485;28;758;-83
2022/03/05 00:25:42;;;;;;;;;;;;;;;;;;348478;28;963;-83
2022/03/05 00:25:52;;;;;;;;;;;;;;;;;;348419;28;877;-84
2022/03/05 00:26:02;;;;;;;;;;;;;;;;;;348463;28;979;-84
2022/03/05 00:26:13;;;;;;;;;;;;;;;;;;348435;28;948;-83
2022/03/05 00:26:23;;;;;;;;;;;;;;;;;;348426;28;944;-83
2022/03/05 00:26:33;;;;;;;;;;;;;;;;;;348429;28;1680;-83
2022/03/05 00:26:43;;;;;;;;;;;;;;;;;;348577;28;952;-83
2022/03/05 00:26:54;;;;;;;;;;;;;;;;;;348457;28;1653;-83
2022/03/05 00:27:04;;;;;;;;;;;;;;;;;;348600;28;845;-84
2022/03/05 00:27:14;;;;;;;;;;;;;;;;;;348585;28;936;-83
2022/03/05 00:27:25;;;;;;;;;;;;;;;;;;348541;28;876;-83
2022/03/05 00:27:35;;;;;;;;;;;;;;;;;;348440;28;1632;-83
2022/03/05 00:27:45;;;;;;;;;;;;;;;;;;348615;28;770;-83
2022/03/05 00:27:55;;;;;;;;;;;;;;;;;;348494;28;1692;-84
2022/03/05 00:28:06;;;;;;;;;;;;;;;;;;348585;28;834;-84
2022/03/05 00:28:16;;;;;;;;;;;;;;;;;;348606;28;853;-84
2022/03/05 00:28:26;;;;;;;;;;;;;;;;;;348526;28;984;-84
2022/03/05 00:28:36;;;;;;;;;;;;;;;;;;348518;28;976;-83
2022/03/05 00:28:46;;;;;;;;;;;;;;;;;;348498;28;849;-83
2022/03/05 00:28:57;;;;;;;;;;;;;;;;;;348556;28;909;-83
2022/03/05 00:29:07;;;;;;;;;;;;;;;;;;348579;28;849;-85
2022/03/05 00:29:18;;;;;;;;;;;;;;;;;;348539;28;917;-83
2022/03/05 00:29:28;;;;;;;;;;;;;;;;;;348551;28;924;-83
2022/03/05 00:29:38;;;;;;;;;;;;;;;;;;348857;28;1634;-83
2022/03/05 00:29:48;;;;;;;;;;;;;;;;;;348503;28;1805;-84
2022/03/05 00:29:59;;;;;;;;;;;;;;;;;;348515;28;972;-84
2022/03/05 00:30:09;;;;;;;;;;;;;;;;;;348526;28;1778;-83
2022/03/05 00:30:19;;;;;;;;;;;;;;;;;;348690;28;1187;-84
2022/03/05 00:30:30;;;;;;;;;;;;;;;;;;348551;28;808;-83
2022/03/05 00:30:41;;;;;;;;;;;;;;;;;;348464;28;990;-84
2022/03/05 00:30:54;;;;;;;;;;;;;;;;;;348518;28;980;-84
2022/03/05 00:31:04;;;;;;;;;;;;;;;;;;348547;28;933;-84
2022/03/05 00:31:14;;;;;;;;;;;;;;;;;;348483;28;913;-84
2022/03/05 00:31:25;;;;;;;;;;;;;;;;;;348582;28;779;-84
2022/03/05 00:31:35;;;;;;;;;;;;;;;;;;348536;28;992;-84
2022/03/05 00:31:45;;;;;;;;;;;;;;;;;;348566;28;960;-84
2022/03/05 00:31:56;;;;;;;;;;;;;;;;;;348545;28;833;-84
2022/03/05 00:32:06;;;;;;;;;;;;;;;;;;348527;28;853;-84
2022/03/05 00:32:16;;;;;;;;;;;;;;;;;;348558;28;905;-84
2022/03/05 00:32:27;;;;;;;;;;;;;;;;;;348552;28;905;-84
2022/03/05 00:32:37;;;;;;;;;;;;;;;;;;348629;28;790;-84
2022/03/05 00:32:47;;;;;;;;;;;;;;;;;;348546;28;925;-85
2022/03/05 00:32:58;;;;;;;;;;;;;;;;;;348527;28;894;-84
2022/03/05 00:33:08;;;;;;;;;;;;;;;;;;348582;28;964;-84
2022/03/05 00:33:20;;;;;;;;;;;;;;;;;;348300;28;1817;-84
2022/03/05 00:33:30;;;;;;;;;;;;;;;;;;349802;28;1178;-84
2022/03/05 00:33:40;;;;;;;;;;;;;;;;;;349843;28;972;-84
2022/03/05 00:33:51;;;;;;;;;;;;;;;;;;349772;28;1157;-84
2022/03/05 00:34:01;;;;;;;;;;;;;;;;;;349828;28;920;-84
2022/03/05 00:34:11;;;;;;;;;;;;;;;;;;351186;28;984;-84
2022/03/05 00:34:22;;;;;;;;;;;;;;;;;;350861;28;1645;-84
2022/03/05 00:34:32;;;;;;;;;;;;;;;;;;351211;28;1016;-84
2022/03/05 00:34:42;;;;;;;;;;;;;;;;;;351190;28;912;-84
2022/03/05 00:34:52;;;;;;;;;;;;;;;;;;351214;28;952;-84
2022/03/05 00:35:03;;;;;;;;;;;;;;;;;;351202;28;924;-83
2022/03/05 00:35:14;;;;;;;;;;;;;;;;;;351187;28;908;-85
2022/03/05 00:35:24;;;;;;;;;;;;;;;;;;351261;28;975;-84
2022/03/05 00:35:34;;;;;;;;;;;;;;;;;;351184;28;944;-84
2022/03/05 00:35:45;;;;;;;;;;;;;;;;;;351177;28;913;-84
2022/03/05 00:35:55;;;;;;;;;;;;;;;;;;351250;28;844;-84
2022/03/05 00:36:06;;;;;;;;;;;;;;;;;;350273;28;1087;-84
2022/03/05 00:36:17;;;;;;;;;;;;;;;;;;348648;28;1764;-83
2022/03/05 00:36:27;;;;;;;;;;;;;;;;;;349852;28;1011;-84
2022/03/05 00:36:38;;;;;;;;;;;;;;;;;;349930;28;916;-84
2022/03/05 00:36:48;;;;;;;;;;;;;;;;;;349887;28;825;-84
2022/03/05 00:36:58;;;;;;;;;;;;;;;;;;349942;28;849;-84
2022/03/05 00:37:10;;;;;;;;;;;;;;;;;;349923;28;1007;-84
2022/03/05 00:37:20;;;;;;;;;;;;;;;;;;349909;28;802;-84
2022/03/05 00:37:31;;;;;;;;;;;;;;;;;;349887;28;972;-84
2022/03/05 00:37:41;;;;;;;;;;;;;;;;;;349893;28;795;-84
2022/03/05 00:37:52;;;;;;;;;;;;;;;;;;349932;28;937;-84
2022/03/05 00:38:02;;;;;;;;;;;;;;;;;;349962;28;972;-84
2022/03/05 00:38:12;;;;;;;;;;;;;;;;;;349891;28;1011;-84
2022/03/05 00:38:23;;;;;;;;;;;;;;;;;;349505;28;1757;-84
2022/03/05 00:38:33;;;;;;;;;;;;;;;;;;348484;28;1036;-83
2022/03/05 00:38:43;;;;;;;;;;;;;;;;;;349496;28;1277;-84
2022/03/05 00:38:53;;;;;;;;;;;;;;;;;;351307;28;750;-85
2022/03/05 00:39:04;;;;;;;;;;;;;;;;;;351277;28;1038;-84
2022/03/05 00:39:14;;;;;;;;;;;;;;;;;;351308;28;794;-84
2022/03/05 00:39:25;;;;;;;;;;;;;;;;;;348679;28;1652;-84
2022/03/05 00:39:35;;;;;;;;;;;;;;;;;;348593;28;983;-84
2022/03/05 00:39:45;;;;;;;;;;;;;;;;;;348564;28;996;-84
2022/03/05 00:39:56;;;;;;;;;;;;;;;;;;348569;28;850;-83
2022/03/05 00:40:06;;;;;;;;;;;;;;;;;;348574;28;921;-84
2022/03/05 00:40:17;;;;;;;;;;;;;;;;;;348445;28;961;-84
2022/03/05 00:40:27;;;;;;;;;;;;;;;;;;351252;28;861;-83
2022/03/05 00:40:39;;;;;;;;;;;;;;;;;;351223;28;940;-84
2022/03/05 00:40:49;;;;;;;;;;;;;;;;;;351273;28;849;-83
2022/03/05 00:40:59;;;;;;;;;;;;;;;;;;351157;28;1906;-84
2022/03/05 00:41:10;;;;;;;;;;;;;;;;;;351192;28;801;-84
2022/03/05 00:41:20;;;;;;;;;;;;;;;;;;351456;28;928;-83
2022/03/05 00:41:30;;;;;;;;;;;;;;;;;;351358;28;986;-84
2022/03/05 00:41:40;;;;;;;;;;;;;;;;;;351355;28;1173;-84
2022/03/05 00:41:51;;;;;;;;;;;;;;;;;;351480;28;979;-84
2022/03/05 00:42:01;;;;;;;;;;;;;;;;;;351488;28;774;-83
2022/03/05 00:42:11;;;;;;;;;;;;;;;;;;351508;28;932;-84
2022/03/05 00:42:21;;;;;;;;;;;;;;;;;;351273;28;1712;-84
2022/03/05 00:42:32;;;;;;;;;;;;;;;;;;350171;28;788;-84
2022/03/05 00:42:42;;;;;;;;;;;;;;;;;;350184;28;960;-84
2022/03/05 00:42:53;;;;;;;;;;;;;;;;;;350136;28;964;-84
2022/03/05 00:43:03;;;;;;;;;;;;;;;;;;350198;28;955;-84
2022/03/05 00:43:14;;;;;;;;;;;;;;;;;;350174;28;777;-84
2022/03/05 00:43:24;;;;;;;;;;;;;;;;;;350207;28;921;-84
2022/03/05 00:43:35;;;;;;;;;;;;;;;;;;350205;28;913;-83
2022/03/05 00:43:45;;;;;;;;;;;;;;;;;;350178;28;861;-83
2022/03/05 00:43:55;;;;;;;;;;;;;;;;;;350161;28;1022;-83
2022/03/05 00:44:05;;;;;;;;;;;;;;;;;;350217;28;861;-83
2022/03/05 00:44:15;;;;;;;;;;;;;;;;;;350170;28;847;-83
2022/03/05 00:44:26;;;;;;;;;;;;;;;;;;350227;28;905;-83
2022/03/05 00:44:36;;;;;;;;;;;;;;;;;;350204;28;932;-83
2022/03/05 00:44:46;;;;;;;;;;;;;;;;;;350112;28;1002;-83
2022/03/05 00:44:56;;;;;;;;;;;;;;;;;;350190;28;815;-83
2022/03/05 00:45:07;;;;;;;;;;;;;;;;;;350238;28;921;-83
2022/03/05 00:45:17;;;;;;;;;;;;;;;;;;349754;28;1665;-83
2022/03/05 00:45:27;;;;;;;;;;;;;;;;;;348824;28;1594;-83
2022/03/05 00:45:38;;;;;;;;;;;;;;;;;;348774;28;1139;-83
2022/03/05 00:45:48;;;;;;;;;;;;;;;;;;348801;28;852;-83
2022/03/05 00:45:58;;;;;;;;;;;;;;;;;;348762;28;988;-83
2022/03/05 00:46:08;;;;;;;;;;;;;;;;;;348831;28;972;-83
2022/03/05 00:46:18;;;;;;;;;;;;;;;;;;348731;28;846;-83
2022/03/05 00:46:29;;;;;;;;;;;;;;;;;;348823;28;952;-83
2022/03/05 00:46:40;;;;;;;;;;;;;;;;;;348850;28;908;-83
2022/03/05 00:46:50;;;;;;;;;;;;;;;;;;348787;28;944;-83
2022/03/05 00:47:01;;;;;;;;;;;;;;;;;;349851;28;1741;-83
2022/03/05 00:47:11;;;;;;;;;;;;;;;;;;350201;28;957;-83
2022/03/05 00:47:21;;;;;;;;;;;;;;;;;;350134;28;916;-83
2022/03/05 00:47:32;;;;;;;;;;;;;;;;;;350150;28;1039;-83
2022/03/05 00:47:43;;;;;;;;;;;;;;;;;;350248;28;913;-83
2022/03/05 00:47:53;;;;;;;;;;;;;;;;;;350142;28;921;-83
2022/03/05 00:48:03;;;;;;;;;;;;;;;;;;350132;28;980;-82
2022/03/05 00:48:14;;;;;;;;;;;;;;;;;;350185;28;1024;-83
2022/03/05 00:48:24;;;;;;;;;;;;;;;;;;350191;28;908;-83
2022/03/05 00:48:34;;;;;;;;;;;;;;;;;;350165;28;912;-83
2022/03/05 00:48:44;;;;;;;;;;;;;;;;;;350220;28;786;-83
2022/03/05 00:48:54;;;;;;;;;;;;;;;;;;349898;28;1769;-82
2022/03/05 00:49:05;;;;;;;;;;;;;;;;;;349305;28;1653;-83
2022/03/05 00:49:15;;;;;;;;;;;;;;;;;;350154;28;988;-83
2022/03/05 00:49:25;;;;;;;;;;;;;;;;;;350132;28;1106;-83
2022/03/05 00:49:35;;;;;;;;;;;;;;;;;;350170;28;902;-83
2022/03/05 00:49:46;;;;;;;;;;;;;;;;;;350165;28;968;-82
2022/03/05 00:49:56;;;;;;;;;;;;;;;;;;350175;28;881;-83
2022/03/05 00:50:07;;;;;;;;;;;;;;;;;;350203;28;814;-83
2022/03/05 00:50:17;;;;;;;;;;;;;;;;;;348818;28;909;-83
2022/03/05 00:50:27;;;;;;;;;;;;;;;;;;348809;28;1047;-83
2022/03/05 00:50:39;;;;;;;;;;;;;;;;;;348794;28;895;-83
2022/03/05 00:50:49;;;;;;;;;;;;;;;;;;348852;28;913;-83
2022/03/05 00:50:59;;;;;;;;;;;;;;;;;;348835;28;984;-83
2022/03/05 00:51:10;;;;;;;;;;;;;;;;;;348830;28;988;-83
2022/03/05 00:51:20;;;;;;;;;;;;;;;;;;348811;28;854;-83
2022/03/05 00:51:30;;;;;;;;;;;;;;;;;;348791;28;940;-82
2022/03/05 00:51:40;;;;;;;;;;;;;;;;;;348784;28;961;-83
2022/03/05 00:51:52;;;;;;;;;;;;;;;;;;348770;28;858;-83
2022/03/05 00:52:03;;;;;;;;;;;;;;;;;;348755;28;921;-82
2022/03/05 00:52:13;;;;;;;;;;;;;;;;;;348814;28;794;-83
2022/03/05 00:52:23;;;;;;;;;;;;;;;;;;348835;28;933;-83
2022/03/05 00:52:34;;;;;;;;;;;;;;;;;;348734;28;1665;-83
2022/03/05 00:52:44;;;;;;;;;;;;;;;;;;348642;28;1779;-82
2022/03/05 00:52:55;;;;;;;;;;;;;;;;;;348840;28;806;-83
2022/03/05 00:53:05;;;;;;;;;;;;;;;;;;348721;28;1481;-83
2022/03/05 00:53:17;;;;;;;;;;;;;;;;;;350088;28;1567;-83
2022/03/05 00:53:27;;;;;;;;;;;;;;;;;;350166;28;1012;-83
2022/03/05 00:53:38;;;;;;;;;;;;;;;;;;350126;28;924;-83
2022/03/05 00:53:48;;;;;;;;;;;;;;;;;;350186;28;905;-83
2022/03/05 00:53:58;;;;;;;;;;;;;;;;;;350171;28;912;-83
2022/03/05 00:54:08;;;;;;;;;;;;;;;;;;350218;28;786;-83
2022/03/05 00:54:19;;;;;;;;;;;;;;;;;;350218;28;951;-83
2022/03/05 00:54:29;;;;;;;;;;;;;;;;;;350159;28;853;-82
2022/03/05 00:54:39;;;;;;;;;;;;;;;;;;350197;28;913;-83
2022/03/05 00:54:50;;;;;;;;;;;;;;;;;;350166;28;1213;-83
2022/03/05 00:55:00;;;;;;;;;;;;;;;;;;350201;28;1107;-83
2022/03/05 00:55:11;;;;;;;;;;;;;;;;;;350039;28;1472;-83
2022/03/05 00:55:21;;;;;;;;;;;;;;;;;;350126;28;1024;-82
2022/03/05 00:55:31;;;;;;;;;;;;;;;;;;350237;28;802;-83
2022/03/05 00:55:41;;;;;;;;;;;;;;;;;;350161;28;809;-83
2022/03/05 00:55:52;;;;;;;;;;;;;;;;;;350207;28;912;-83
2022/03/05 00:56:02;;;;;;;;;;;;;;;;;;350039;28;1039;-83
2022/03/05 00:56:12;;;;;;;;;;;;;;;;;;349985;28;945;-83
2022/03/05 00:56:22;;;;;;;;;;;;;;;;;;350125;28;980;-82
2022/03/05 00:56:33;;;;;;;;;;;;;;;;;;350124;28;825;-83
2022/03/05 00:56:43;;;;;;;;;;;;;;;;;;350094;28;1003;-83
2022/03/05 00:56:53;;;;;;;;;;;;;;;;;;350116;28;917;-83
2022/03/05 00:57:03;;;;;;;;;;;;;;;;;;350024;28;983;-83
2022/03/05 00:57:14;;;;;;;;;;;;;;;;;;350011;28;976;-83
2022/03/05 00:57:24;;;;;;;;;;;;;;;;;;350114;28;873;-83
2022/03/05 00:57:34;;;;;;;;;;;;;;;;;;350135;28;758;-83
2022/03/05 00:57:44;;;;;;;;;;;;;;;;;;350159;28;968;-83
2022/03/05 00:57:54;;;;;;;;;;;;;;;;;;350048;28;774;-82
2022/03/05 00:58:05;;;;;;;;;;;;;;;;;;350196;28;980;-83
2022/03/05 00:58:15;;;;;;;;;;;;;;;;;;350131;28;1008;-83
2022/03/05 00:58:25;;;;;;;;;;;;;;;;;;350195;28;857;-83
2022/03/05 00:58:35;;;;;;;;;;;;;;;;;;350210;28;929;-83
2022/03/05 00:58:46;;;;;;;;;;;;;;;;;;350153;28;874;-83
2022/03/05 00:58:56;;;;;;;;;;;;;;;;;;350156;28;925;-83
2022/03/05 00:59:06;;;;;;;;;;;;;;;;;;350078;28;1172;-82
2022/03/05 00:59:16;;;;;;;;;;;;;;;;;;349205;28;1700;-82
2022/03/05 00:59:27;;;;;;;;;;;;;;;;;;348798;28;911;-83
2022/03/05 00:59:37;;;;;;;;;;;;;;;;;;348816;28;786;-83
2022/03/05 00:59:47;;;;;;;;;;;;;;;;;;348764;28;1092;-83
2022/03/05 00:59:57;;;;;;;;;;;;;;;;;;348777;28;971;-83
2022/03/05 01:00:10;;;;;;;;;;;;;;;;;;348779;28;920;-83
2022/03/05 01:00:21;;;;;;;;;;;;;;;;;;348806;28;902;-84
2022/03/05 01:00:31;;;;;;;;;;;;;;;;;;348825;28;976;-83
2022/03/05 01:00:41;;;;;;;;;;;;;;;;;;348806;28;905;-83
2022/03/05 01:00:52;;;;;;;;;;;;;;;;;;348756;28;912;-83
2022/03/05 01:01:03;;;;;;;;;;;;;;;;;;348714;28;1910;-83
2022/03/05 01:01:13;;;;;;;;;;;;;;;;;;348827;28;874;-83
2022/03/05 01:01:23;;;;;;;;;;;;;;;;;;348806;28;1048;-83
2022/03/05 01:01:34;;;;;;;;;;;;;;;;;;348762;28;921;-83
2022/03/05 01:01:44;;;;;;;;;;;;;;;;;;348822;28;845;-83
2022/03/05 01:01:54;;;;;;;;;;;;;;;;;;348768;28;920;-83
2022/03/05 01:02:04;;;;;;;;;;;;;;;;;;348730;28;1024;-83
2022/03/05 01:02:14;;;;;;;;;;;;;;;;;;348738;28;937;-83
2022/03/05 01:02:25;;;;;;;;;;;;;;;;;;348814;28;876;-83
2022/03/05 01:02:35;;;;;;;;;;;;;;;;;;348755;28;969;-83
2022/03/05 01:02:45;;;;;;;;;;;;;;;;;;348806;28;965;-83
2022/03/05 01:02:55;;;;;;;;;;;;;;;;;;348770;28;912;-83
2022/03/05 01:03:05;;;;;;;;;;;;;;;;;;348801;28;945;-83
2022/03/05 01:03:16;;;;;;;;;;;;;;;;;;348777;28;810;-83
2022/03/05 01:03:26;;;;;;;;;;;;;;;;;;348838;28;810;-83
2022/03/05 01:03:36;;;;;;;;;;;;;;;;;;348807;28;816;-83
2022/03/05 01:03:46;;;;;;;;;;;;;;;;;;348816;28;850;-83
2022/03/05 01:03:57;;;;;;;;;;;;;;;;;;348820;28;965;-83
2022/03/05 01:04:07;;;;;;;;;;;;;;;;;;348772;28;920;-83
2022/03/05 01:04:17;;;;;;;;;;;;;;;;;;348744;28;901;-83
2022/03/05 01:04:27;;;;;;;;;;;;;;;;;;348845;28;1012;-83
2022/03/05 01:04:37;;;;;;;;;;;;;;;;;;348798;28;958;-83
2022/03/05 01:04:48;;;;;;;;;;;;;;;;;;348815;28;778;-83
2022/03/05 01:04:58;;;;;;;;;;;;;;;;;;348665;28;1918;-83
2022/03/05 01:05:09;;;;;;;;;;;;;;;;;;348809;28;857;-83
2022/03/05 01:05:19;;;;;;;;;;;;;;;;;;348791;28;909;-83
2022/03/05 01:05:29;;;;;;;;;;;;;;;;;;348815;28;787;-83
2022/03/05 01:05:39;;;;;;;;;;;;;;;;;;348782;28;964;-83
2022/03/05 01:05:50;;;;;;;;;;;;;;;;;;348813;28;898;-83
2022/03/05 01:06:00;;;;;;;;;;;;;;;;;;348773;28;1000;-83
2022/03/05 01:06:10;;;;;;;;;;;;;;;;;;348765;28;757;-83
2022/03/05 01:06:21;;;;;;;;;;;;;;;;;;348741;28;956;-83
2022/03/05 01:06:31;;;;;;;;;;;;;;;;;;348700;28;988;-83
2022/03/05 01:06:41;;;;;;;;;;;;;;;;;;348743;28;1027;-84
2022/03/05 01:06:52;;;;;;;;;;;;;;;;;;348774;28;1066;-83
2022/03/05 01:07:02;;;;;;;;;;;;;;;;;;351330;28;1552;-83
2022/03/05 01:07:12;;;;;;;;;;;;;;;;;;351451;28;829;-83
2022/03/05 01:07:22;;;;;;;;;;;;;;;;;;351433;28;917;-83
2022/03/05 01:07:33;;;;;;;;;;;;;;;;;;351459;28;1055;-83
2022/03/05 01:07:43;;;;;;;;;;;;;;;;;;351462;28;897;-83
2022/03/05 01:07:53;;;;;;;;;;;;;;;;;;351487;28;969;-83
2022/03/05 01:08:03;;;;;;;;;;;;;;;;;;351431;28;968;-83
2022/03/05 01:08:14;;;;;;;;;;;;;;;;;;351428;28;836;-83
2022/03/05 01:08:24;;;;;;;;;;;;;;;;;;351282;28;1673;-82
2022/03/05 01:08:34;;;;;;;;;;;;;;;;;;351440;28;818;-83
2022/03/05 01:08:45;;;;;;;;;;;;;;;;;;351370;28;790;-83
2022/03/05 01:08:55;;;;;;;;;;;;;;;;;;350780;28;980;-83
2022/03/05 01:09:05;;;;;;;;;;;;;;;;;;348660;28;850;-83
2022/03/05 01:09:16;;;;;;;;;;;;;;;;;;348643;28;960;-83
2022/03/05 01:09:26;;;;;;;;;;;;;;;;;;348597;28;968;-83
2022/03/05 01:09:37;;;;;;;;;;;;;;;;;;348728;28;921;-83
2022/03/05 01:09:47;;;;;;;;;;;;;;;;;;348826;28;921;-83
2022/03/05 01:09:57;;;;;;;;;;;;;;;;;;348756;28;885;-83
2022/03/05 01:10:08;;;;;;;;;;;;;;;;;;348796;28;916;-83
2022/03/05 01:10:18;;;;;;;;;;;;;;;;;;348710;28;1003;-83
2022/03/05 01:10:28;;;;;;;;;;;;;;;;;;348703;28;1235;-83
2022/03/05 01:10:38;;;;;;;;;;;;;;;;;;348800;28;801;-84
2022/03/05 01:10:48;;;;;;;;;;;;;;;;;;348808;28;925;-83
2022/03/05 01:10:59;;;;;;;;;;;;;;;;;;348736;28;940;-83
2022/03/05 01:11:12;;;;;;;;;;;;;;;;;;348782;28;921;-83
2022/03/05 01:11:22;;;;;;;;;;;;;;;;;;348750;28;1087;-83
2022/03/05 01:11:32;;;;;;;;;;;;;;;;;;348724;28;965;-83
2022/03/05 01:11:42;;;;;;;;;;;;;;;;;;348824;28;858;-83
2022/03/05 01:11:53;;;;;;;;;;;;;;;;;;348774;28;969;-83
2022/03/05 01:12:04;;;;;;;;;;;;;;;;;;348802;28;1019;-83
2022/03/05 01:12:14;;;;;;;;;;;;;;;;;;348756;28;1049;-83
2022/03/05 01:12:24;;;;;;;;;;;;;;;;;;348724;28;857;-83
2022/03/05 01:12:35;;;;;;;;;;;;;;;;;;348945;28;1797;-84
2022/03/05 01:12:45;;;;;;;;;;;;;;;;;;348770;28;1701;-83
2022/03/05 01:12:55;;;;;;;;;;;;;;;;;;348757;28;1015;-83
2022/03/05 01:13:06;;;;;;;;;;;;;;;;;;348744;28;972;-83
2022/03/05 01:13:16;;;;;;;;;;;;;;;;;;348809;28;941;-84
2022/03/05 01:13:26;;;;;;;;;;;;;;;;;;349014;28;1574;-83
2022/03/05 01:13:36;;;;;;;;;;;;;;;;;;350097;28;961;-83
2022/03/05 01:13:47;;;;;;;;;;;;;;;;;;350082;28;1051;-83
2022/03/05 01:13:58;;;;;;;;;;;;;;;;;;350213;28;869;-83
2022/03/05 01:14:08;;;;;;;;;;;;;;;;;;350192;28;797;-83
2022/03/05 01:14:18;;;;;;;;;;;;;;;;;;350184;28;920;-83
2022/03/05 01:14:28;;;;;;;;;;;;;;;;;;350065;28;913;-82
2022/03/05 01:14:39;;;;;;;;;;;;;;;;;;350177;28;719;-83